sensor_id;sensor_type;location;lat;lon;timestamp;pressure;altitude;pressure_sealevel;temperature;humidity
46946;BME280;32679;40.810;14.498;2023-03-13T00:03:37;100405.22;;;10.53;61.68
46946;BME280;32679;40.810;14.498;2023-03-13T00:06:05;100404.00;;;10.51;60.37
46946;BME280;32679;40.810;14.498;2023-03-13T00:08:33;100396.81;;;10.49;59.29
46946;BME280;32679;40.810;14.498;2023-03-13T00:11:07;100400.50;;;10.69;58.15
46946;BME280;32679;40.810;14.498;2023-03-13T00:13:36;100397.63;;;10.66;58.38
46946;BME280;32679;40.810;14.498;2023-03-13T00:16:09;100397.16;;;10.64;58.72
46946;BME280;32679;40.810;14.498;2023-03-13T00:18:37;100412.06;;;10.56;58.58
46946;BME280;32679;40.810;14.498;2023-03-13T00:21:08;100410.78;;;10.53;59.41
46946;BME280;32679;40.810;14.498;2023-03-13T00:23:37;100411.09;;;10.64;58.59
46946;BME280;32679;40.810;14.498;2023-03-13T00:26:07;100401.75;;;10.72;59.09
46946;BME280;32679;40.810;14.498;2023-03-13T00:28:37;100413.22;;;10.70;59.65
46946;BME280;32679;40.810;14.498;2023-03-13T00:31:06;100414.34;;;10.66;59.76
46946;BME280;32679;40.810;14.498;2023-03-13T00:33:33;100399.94;;;10.64;59.71
46946;BME280;32679;40.810;14.498;2023-03-13T00:36:04;100401.81;;;10.60;59.29
46946;BME280;32679;40.810;14.498;2023-03-13T00:38:32;100408.13;;;10.72;58.72
46946;BME280;32679;40.810;14.498;2023-03-13T00:41:02;100402.38;;;10.81;58.59
46946;BME280;32679;40.810;14.498;2023-03-13T00:43:31;100401.28;;;10.70;58.31
46946;BME280;32679;40.810;14.498;2023-03-13T00:45:57;100399.66;;;10.53;59.06
46946;BME280;32679;40.810;14.498;2023-03-13T00:48:23;100403.47;;;10.61;59.12
46946;BME280;32679;40.810;14.498;2023-03-13T00:50:56;100410.34;;;10.51;58.98
46946;BME280;32679;40.810;14.498;2023-03-13T00:53:22;100407.72;;;10.42;59.51
46946;BME280;32679;40.810;14.498;2023-03-13T00:55:56;100417.50;;;10.36;60.15
46946;BME280;32679;40.810;14.498;2023-03-13T00:58:22;100426.31;;;10.54;59.95
46946;BME280;32679;40.810;14.498;2023-03-13T01:00:51;100413.75;;;10.44;59.30
46946;BME280;32679;40.810;14.498;2023-03-13T01:03:20;100421.19;;;10.40;60.74
46946;BME280;32679;40.810;14.498;2023-03-13T01:05:54;100420.41;;;10.40;60.87
46946;BME280;32679;40.810;14.498;2023-03-13T01:08:20;100414.72;;;10.36;60.23
46946;BME280;32679;40.810;14.498;2023-03-13T01:10:46;100425.91;;;10.24;61.21
46946;BME280;32679;40.810;14.498;2023-03-13T01:13:13;100421.50;;;10.23;61.60
46946;BME280;32679;40.810;14.498;2023-03-13T01:15:42;100425.41;;;10.34;61.60
46946;BME280;32679;40.810;14.498;2023-03-13T01:18:10;100426.72;;;10.25;61.04
46946;BME280;32679;40.810;14.498;2023-03-13T01:20:37;100419.84;;;10.22;61.78
46946;BME280;32679;40.810;14.498;2023-03-13T01:23:06;100429.13;;;10.26;61.28
46946;BME280;32679;40.810;14.498;2023-03-13T01:25:35;100425.66;;;10.17;60.69
46946;BME280;32679;40.810;14.498;2023-03-13T01:28:04;100422.81;;;10.13;61.34
46946;BME280;32679;40.810;14.498;2023-03-13T01:30:29;100419.00;;;10.06;62.38
46946;BME280;32679;40.810;14.498;2023-03-13T01:32:55;100417.13;;;10.10;62.26
46946;BME280;32679;40.810;14.498;2023-03-13T01:35:26;100408.34;;;10.08;62.00
46946;BME280;32679;40.810;14.498;2023-03-13T01:37:56;100420.06;;;10.01;62.20
46946;BME280;32679;40.810;14.498;2023-03-13T01:40:21;100415.31;;;10.02;61.28
46946;BME280;32679;40.810;14.498;2023-03-13T01:42:55;100420.09;;;9.89;61.77
46946;BME280;32679;40.810;14.498;2023-03-13T01:48:17;100414.34;;;9.82;62.21
46946;BME280;32679;40.810;14.498;2023-03-13T01:50:46;100406.75;;;9.94;61.77
46946;BME280;32679;40.810;14.498;2023-03-13T01:53:16;100410.16;;;9.88;61.60
46946;BME280;32679;40.810;14.498;2023-03-13T01:55:45;100407.63;;;9.83;61.92
46946;BME280;32679;40.810;14.498;2023-03-13T01:58:14;100413.06;;;9.79;61.29
46946;BME280;32679;40.810;14.498;2023-03-13T02:00:43;100405.94;;;9.66;62.12
46946;BME280;32679;40.810;14.498;2023-03-13T02:03:14;100413.72;;;9.60;62.51
46946;BME280;32679;40.810;14.498;2023-03-13T02:05:44;100422.66;;;9.54;61.46
46946;BME280;32679;40.810;14.498;2023-03-13T02:08:34;100416.16;;;9.50;61.82
46946;BME280;32679;40.810;14.498;2023-03-13T02:11:28;100413.59;;;9.57;61.92
46946;BME280;32679;40.810;14.498;2023-03-13T02:13:56;100402.97;;;9.47;62.54
46946;BME280;32679;40.810;14.498;2023-03-13T02:16:23;100411.28;;;9.47;62.25
46946;BME280;32679;40.810;14.498;2023-03-13T02:18:51;100412.00;;;9.43;60.93
46946;BME280;32679;40.810;14.498;2023-03-13T02:21:35;100406.53;;;9.47;61.12
46946;BME280;32679;40.810;14.498;2023-03-13T02:24:32;100405.06;;;9.37;60.85
46946;BME280;32679;40.810;14.498;2023-03-13T02:27:02;100406.22;;;9.36;61.26
46946;BME280;32679;40.810;14.498;2023-03-13T02:29:36;100417.09;;;9.29;61.78
46946;BME280;32679;40.810;14.498;2023-03-13T02:32:05;100419.88;;;9.29;61.37
46946;BME280;32679;40.810;14.498;2023-03-13T02:34:32;100420.56;;;9.26;61.25
46946;BME280;32679;40.810;14.498;2023-03-13T02:37:01;100418.72;;;9.30;60.43
46946;BME280;32679;40.810;14.498;2023-03-13T02:39:32;100415.50;;;9.28;60.44
46946;BME280;32679;40.810;14.498;2023-03-13T02:42:00;100421.25;;;9.35;60.32
46946;BME280;32679;40.810;14.498;2023-03-13T02:44:27;100411.22;;;9.43;59.82
46946;BME280;32679;40.810;14.498;2023-03-13T02:46:55;100417.31;;;9.36;59.92
46946;BME280;32679;40.810;14.498;2023-03-13T02:49:27;100418.25;;;9.40;60.96
46946;BME280;32679;40.810;14.498;2023-03-13T02:52:10;100413.16;;;9.42;60.97
46946;BME280;32679;40.810;14.498;2023-03-13T02:54:40;100401.94;;;9.27;60.61
46946;BME280;32679;40.810;14.498;2023-03-13T02:57:10;100422.22;;;9.27;61.20
46946;BME280;32679;40.810;14.498;2023-03-13T02:59:41;100426.25;;;9.17;61.20
46946;BME280;32679;40.810;14.498;2023-03-13T03:02:09;100415.47;;;9.16;61.65
46946;BME280;32679;40.810;14.498;2023-03-13T03:04:37;100422.56;;;9.38;60.91
46946;BME280;32679;40.810;14.498;2023-03-13T03:07:05;100424.84;;;9.36;60.54
46946;BME280;32679;40.810;14.498;2023-03-13T03:09:33;100419.75;;;9.26;61.44
46946;BME280;32679;40.810;14.498;2023-03-13T03:12:02;100431.91;;;9.33;60.19
46946;BME280;32679;40.810;14.498;2023-03-13T03:14:28;100429.72;;;9.27;60.73
46946;BME280;32679;40.810;14.498;2023-03-13T03:16:56;100426.59;;;9.28;60.90
46946;BME280;32679;40.810;14.498;2023-03-13T03:19:21;100428.56;;;9.15;61.13
46946;BME280;32679;40.810;14.498;2023-03-13T03:21:49;100434.00;;;9.12;61.79
46946;BME280;32679;40.810;14.498;2023-03-13T03:24:15;100438.16;;;9.18;61.19
46946;BME280;32679;40.810;14.498;2023-03-13T03:26:41;100430.88;;;9.13;60.84
46946;BME280;32679;40.810;14.498;2023-03-13T03:29:09;100437.47;;;9.09;60.89
46946;BME280;32679;40.810;14.498;2023-03-13T03:31:38;100441.41;;;9.08;61.47
46946;BME280;32679;40.810;14.498;2023-03-13T03:34:04;100440.81;;;9.02;62.15
46946;BME280;32679;40.810;14.498;2023-03-13T03:36:32;100452.50;;;8.96;62.15
46946;BME280;32679;40.810;14.498;2023-03-13T03:39:00;100445.66;;;8.93;62.45
46946;BME280;32679;40.810;14.498;2023-03-13T03:41:28;100448.56;;;8.97;62.08
46946;BME280;32679;40.810;14.498;2023-03-13T03:43:59;100442.06;;;8.80;61.65
46946;BME280;32679;40.810;14.498;2023-03-13T03:46:25;100453.50;;;8.79;62.92
46946;BME280;32679;40.810;14.498;2023-03-13T03:48:50;100447.41;;;8.85;62.99
46946;BME280;32679;40.810;14.498;2023-03-13T03:51:18;100450.75;;;8.91;62.54
46946;BME280;32679;40.810;14.498;2023-03-13T03:53:46;100460.47;;;8.97;62.87
46946;BME280;32679;40.810;14.498;2023-03-13T03:56:11;100463.84;;;8.90;63.26
46946;BME280;32679;40.810;14.498;2023-03-13T03:58:39;100447.38;;;8.73;63.11
46946;BME280;32679;40.810;14.498;2023-03-13T04:01:07;100459.41;;;8.77;62.49
46946;BME280;32679;40.810;14.498;2023-03-13T04:03:35;100464.50;;;8.75;62.58
46946;BME280;32679;40.810;14.498;2023-03-13T04:06:03;100461.38;;;8.77;62.19
46946;BME280;32679;40.810;14.498;2023-03-13T04:08:31;100467.38;;;8.79;61.55
46946;BME280;32679;40.810;14.498;2023-03-13T04:10:59;100469.59;;;8.85;61.43
46946;BME280;32679;40.810;14.498;2023-03-13T04:13:29;100476.09;;;8.89;60.87
46946;BME280;32679;40.810;14.498;2023-03-13T04:15:57;100481.38;;;8.82;61.47
46946;BME280;32679;40.810;14.498;2023-03-13T04:18:25;100484.97;;;8.83;61.28
46946;BME280;32679;40.810;14.498;2023-03-13T04:21:03;100480.44;;;8.78;60.87
46946;BME280;32679;40.810;14.498;2023-03-13T04:23:30;100492.25;;;8.75;61.53
46946;BME280;32679;40.810;14.498;2023-03-13T04:25:57;100491.97;;;8.68;61.66
46946;BME280;32679;40.810;14.498;2023-03-13T04:28:25;100498.81;;;8.71;60.85
46946;BME280;32679;40.810;14.498;2023-03-13T04:30:55;100501.00;;;8.77;59.57
46946;BME280;32679;40.810;14.498;2023-03-13T04:33:24;100495.00;;;8.75;59.30
46946;BME280;32679;40.810;14.498;2023-03-13T04:35:55;100506.78;;;8.72;60.02
46946;BME280;32679;40.810;14.498;2023-03-13T04:38:24;100510.75;;;8.83;59.13
46946;BME280;32679;40.810;14.498;2023-03-13T04:40:49;100506.56;;;8.77;58.86
46946;BME280;32679;40.810;14.498;2023-03-13T04:43:17;100502.03;;;8.73;58.69
46946;BME280;32679;40.810;14.498;2023-03-13T04:45:45;100501.22;;;8.72;59.61
46946;BME280;32679;40.810;14.498;2023-03-13T04:48:11;100510.38;;;8.73;60.32
46946;BME280;32679;40.810;14.498;2023-03-13T04:50:37;100511.75;;;8.79;60.54
46946;BME280;32679;40.810;14.498;2023-03-13T04:53:02;100502.84;;;8.73;60.50
46946;BME280;32679;40.810;14.498;2023-03-13T04:55:31;100499.41;;;8.76;61.04
46946;BME280;32679;40.810;14.498;2023-03-13T04:57:59;100508.66;;;8.80;59.78
46946;BME280;32679;40.810;14.498;2023-03-13T05:00:27;100511.47;;;8.92;60.32
46946;BME280;32679;40.810;14.498;2023-03-13T05:02:55;100517.47;;;8.95;60.38
46946;BME280;32679;40.810;14.498;2023-03-13T05:05:21;100517.47;;;8.95;60.14
46946;BME280;32679;40.810;14.498;2023-03-13T05:07:46;100517.59;;;8.98;60.09
46946;BME280;32679;40.810;14.498;2023-03-13T05:10:14;100520.22;;;8.82;59.88
46946;BME280;32679;40.810;14.498;2023-03-13T05:12:40;100523.22;;;8.77;59.77
46946;BME280;32679;40.810;14.498;2023-03-13T05:15:11;100528.75;;;8.77;60.29
46946;BME280;32679;40.810;14.498;2023-03-13T05:17:36;100533.72;;;8.72;61.01
46946;BME280;32679;40.810;14.498;2023-03-13T05:20:05;100535.91;;;8.66;60.83
46946;BME280;32679;40.810;14.498;2023-03-13T05:22:40;100536.81;;;8.58;62.03
46946;BME280;32679;40.810;14.498;2023-03-13T05:25:09;100535.13;;;8.45;62.04
46946;BME280;32679;40.810;14.498;2023-03-13T05:27:34;100538.69;;;8.45;61.09
46946;BME280;32679;40.810;14.498;2023-03-13T05:30:00;100538.78;;;8.36;61.64
46946;BME280;32679;40.810;14.498;2023-03-13T05:32:28;100542.50;;;9.07;60.00
46946;BME280;32679;40.810;14.498;2023-03-13T05:35:01;100539.34;;;10.06;56.05
46946;BME280;32679;40.810;14.498;2023-03-13T05:37:31;100535.97;;;10.81;53.85
46946;BME280;32679;40.810;14.498;2023-03-13T05:39:59;100534.78;;;11.58;51.75
46946;BME280;32679;40.810;14.498;2023-03-13T05:42:28;100539.75;;;12.35;48.52
46946;BME280;32679;40.810;14.498;2023-03-13T05:44:54;100538.69;;;13.01;47.31
46946;BME280;32679;40.810;14.498;2023-03-13T05:47:19;100541.75;;;13.61;45.36
46946;BME280;32679;40.810;14.498;2023-03-13T05:49:45;100544.53;;;14.14;43.97
46946;BME280;32679;40.810;14.498;2023-03-13T05:52:10;100542.41;;;14.60;43.32
46946;BME280;32679;40.810;14.498;2023-03-13T05:54:38;100542.59;;;15.15;42.07
46946;BME280;32679;40.810;14.498;2023-03-13T05:57:04;100546.19;;;15.60;41.03
46946;BME280;32679;40.810;14.498;2023-03-13T05:59:32;100534.97;;;16.12;37.74
46946;BME280;32679;40.810;14.498;2023-03-13T06:01:57;100539.69;;;16.77;38.25
46946;BME280;32679;40.810;14.498;2023-03-13T06:04:26;100545.44;;;17.20;36.81
46946;BME280;32679;40.810;14.498;2023-03-13T06:06:54;100546.28;;;17.92;36.91
46946;BME280;32679;40.810;14.498;2023-03-13T06:09:25;100551.09;;;17.70;35.70
46946;BME280;32679;40.810;14.498;2023-03-13T06:11:54;100563.16;;;17.31;36.49
46946;BME280;32679;40.810;14.498;2023-03-13T06:14:20;100563.41;;;16.72;37.45
46946;BME280;32679;40.810;14.498;2023-03-13T06:16:53;100551.97;;;16.44;39.73
46946;BME280;32679;40.810;14.498;2023-03-13T06:19:19;100551.69;;;16.70;37.67
46946;BME280;32679;40.810;14.498;2023-03-13T06:21:51;100559.59;;;16.36;38.08
46946;BME280;32679;40.810;14.498;2023-03-13T06:24:16;100555.88;;;17.23;37.19
46946;BME280;32679;40.810;14.498;2023-03-13T06:26:48;100561.53;;;17.62;37.31
46946;BME280;32679;40.810;14.498;2023-03-13T06:29:16;100560.78;;;17.90;35.90
46946;BME280;32679;40.810;14.498;2023-03-13T06:31:44;100558.75;;;17.76;36.01
46946;BME280;32679;40.810;14.498;2023-03-13T06:34:10;100559.09;;;18.21;34.60
46946;BME280;32679;40.810;14.498;2023-03-13T06:36:38;100572.75;;;18.33;36.24
46946;BME280;32679;40.810;14.498;2023-03-13T06:39:05;100568.59;;;18.81;34.37
46946;BME280;32679;40.810;14.498;2023-03-13T06:41:35;100562.22;;;19.36;33.89
46946;BME280;32679;40.810;14.498;2023-03-13T06:44:01;100563.88;;;19.85;33.75
46946;BME280;32679;40.810;14.498;2023-03-13T06:46:32;100557.63;;;20.05;32.57
46946;BME280;32679;40.810;14.498;2023-03-13T06:48:57;100566.66;;;20.30;32.36
46946;BME280;32679;40.810;14.498;2023-03-13T06:51:29;100565.66;;;20.51;32.25
46946;BME280;32679;40.810;14.498;2023-03-13T06:53:57;100566.59;;;20.72;31.55
46946;BME280;32679;40.810;14.498;2023-03-13T06:56:25;100561.22;;;20.81;32.28
46946;BME280;32679;40.810;14.498;2023-03-13T06:58:50;100571.03;;;21.34;31.33
46946;BME280;32679;40.810;14.498;2023-03-13T07:01:18;100561.19;;;21.69;30.74
46946;BME280;32679;40.810;14.498;2023-03-13T07:03:46;100568.31;;;22.01;30.39
46946;BME280;32679;40.810;14.498;2023-03-13T07:06:14;100574.28;;;22.30;30.19
46946;BME280;32679;40.810;14.498;2023-03-13T07:08:40;100568.63;;;22.30;29.73
46946;BME280;32679;40.810;14.498;2023-03-13T07:11:09;100577.16;;;22.49;30.07
46946;BME280;32679;40.810;14.498;2023-03-13T07:13:35;100570.81;;;22.62;29.22
46946;BME280;32679;40.810;14.498;2023-03-13T07:16:06;100574.09;;;22.80;29.18
46946;BME280;32679;40.810;14.498;2023-03-13T07:18:35;100580.69;;;23.13;28.91
46946;BME280;32679;40.810;14.498;2023-03-13T07:21:02;100584.19;;;23.37;28.40
46946;BME280;32679;40.810;14.498;2023-03-13T07:23:32;100583.66;;;22.03;28.19
46946;BME280;32679;40.810;14.498;2023-03-13T07:26:08;100577.66;;;22.44;29.53
46946;BME280;32679;40.810;14.498;2023-03-13T07:28:36;100588.91;;;22.68;28.76
46946;BME280;32679;40.810;14.498;2023-03-13T07:31:22;100592.63;;;23.05;27.97
46946;BME280;32679;40.810;14.498;2023-03-13T07:33:56;100598.72;;;22.43;28.10
46946;BME280;32679;40.810;14.498;2023-03-13T07:36:22;100600.28;;;21.51;29.33
46946;BME280;32679;40.810;14.498;2023-03-13T07:38:48;100595.97;;;21.42;30.48
46946;BME280;32679;40.810;14.498;2023-03-13T07:41:19;100593.88;;;21.74;30.71
46946;BME280;32679;40.810;14.498;2023-03-13T07:43:47;100596.59;;;21.81;29.04
46946;BME280;32679;40.810;14.498;2023-03-13T07:46:15;100595.66;;;21.64;30.69
46946;BME280;32679;40.810;14.498;2023-03-13T07:48:48;100595.66;;;21.64;30.99
46946;BME280;32679;40.810;14.498;2023-03-13T07:51:19;100598.34;;;22.41;30.09
46946;BME280;32679;40.810;14.498;2023-03-13T07:53:50;100604.06;;;21.94;29.52
46946;BME280;32679;40.810;14.498;2023-03-13T07:56:21;100612.44;;;22.25;30.10
46946;BME280;32679;40.810;14.498;2023-03-13T07:58:47;100594.81;;;22.14;29.88
46946;BME280;32679;40.810;14.498;2023-03-13T08:01:20;100609.94;;;21.80;29.75
46946;BME280;32679;40.810;14.498;2023-03-13T08:03:48;100616.59;;;22.40;29.29
46946;BME280;32679;40.810;14.498;2023-03-13T08:06:24;100616.56;;;21.70;30.42
46946;BME280;32679;40.810;14.498;2023-03-13T08:08:56;100623.38;;;21.18;30.99
46946;BME280;32679;40.810;14.498;2023-03-13T08:11:26;100622.63;;;22.42;28.34
46946;BME280;32679;40.810;14.498;2023-03-13T08:13:52;100618.22;;;21.67;29.65
46946;BME280;32679;40.810;14.498;2023-03-13T08:16:28;100617.34;;;21.97;29.00
46946;BME280;32679;40.810;14.498;2023-03-13T08:18:55;100623.38;;;22.46;28.61
46946;BME280;32679;40.810;14.498;2023-03-13T08:21:29;100631.19;;;22.82;26.90
46946;BME280;32679;40.810;14.498;2023-03-13T08:24:00;100627.81;;;22.47;27.29
46946;BME280;32679;40.810;14.498;2023-03-13T08:26:28;100632.94;;;23.16;26.83
46946;BME280;32679;40.810;14.498;2023-03-13T08:29:03;100638.59;;;23.16;27.41
46946;BME280;32679;40.810;14.498;2023-03-13T08:31:34;100641.28;;;22.83;27.62
46946;BME280;32679;40.810;14.498;2023-03-13T08:34:00;100642.00;;;23.27;27.30
46946;BME280;32679;40.810;14.498;2023-03-13T08:36:31;100646.06;;;23.46;25.95
46946;BME280;32679;40.810;14.498;2023-03-13T08:38:59;100641.16;;;23.30;26.79
46946;BME280;32679;40.810;14.498;2023-03-13T08:41:27;100642.31;;;23.85;25.95
46946;BME280;32679;40.810;14.498;2023-03-13T08:43:56;100642.69;;;23.71;26.44
46946;BME280;32679;40.810;14.498;2023-03-13T08:46:23;100641.44;;;23.72;26.84
46946;BME280;32679;40.810;14.498;2023-03-13T08:48:52;100656.44;;;24.05;25.59
46946;BME280;32679;40.810;14.498;2023-03-13T08:51:23;100655.81;;;24.30;25.44
46946;BME280;32679;40.810;14.498;2023-03-13T08:53:50;100654.44;;;24.67;24.60
46946;BME280;32679;40.810;14.498;2023-03-13T08:56:19;100659.28;;;23.89;26.10
46946;BME280;32679;40.810;14.498;2023-03-13T08:58:56;100661.53;;;23.97;25.72
46946;BME280;32679;40.810;14.498;2023-03-13T09:01:28;100662.22;;;25.08;24.85
46946;BME280;32679;40.810;14.498;2023-03-13T09:03:54;100660.78;;;24.88;24.20
46946;BME280;32679;40.810;14.498;2023-03-13T09:06:22;100671.91;;;24.82;25.29
46946;BME280;32679;40.810;14.498;2023-03-13T09:08:48;100671.13;;;24.20;25.48
46946;BME280;32679;40.810;14.498;2023-03-13T09:11:18;100677.31;;;23.82;26.50
46946;BME280;32679;40.810;14.498;2023-03-13T09:13:49;100672.66;;;24.70;26.21
46946;BME280;32679;40.810;14.498;2023-03-13T09:16:22;100674.69;;;24.69;26.06
46946;BME280;32679;40.810;14.498;2023-03-13T09:18:51;100687.63;;;23.92;28.25
46946;BME280;32679;40.810;14.498;2023-03-13T09:21:23;100686.13;;;24.20;28.33
46946;BME280;32679;40.810;14.498;2023-03-13T09:23:49;100677.34;;;24.76;28.92
46946;BME280;32679;40.810;14.498;2023-03-13T09:26:18;100690.91;;;24.23;28.31
46946;BME280;32679;40.810;14.498;2023-03-13T09:28:52;100690.22;;;23.31;30.09
46946;BME280;32679;40.810;14.498;2023-03-13T09:31:24;100689.47;;;23.46;30.58
46946;BME280;32679;40.810;14.498;2023-03-13T09:33:51;100692.94;;;24.07;29.78
46946;BME280;32679;40.810;14.498;2023-03-13T09:36:20;100682.56;;;23.84;29.97
46946;BME280;32679;40.810;14.498;2023-03-13T09:38:46;100689.38;;;23.86;30.17
46946;BME280;32679;40.810;14.498;2023-03-13T09:41:25;100687.09;;;23.81;29.89
46946;BME280;32679;40.810;14.498;2023-03-13T09:46:37;100697.19;;;23.26;30.08
46946;BME280;32679;40.810;14.498;2023-03-13T09:52:18;100692.19;;;23.34;31.69
46946;BME280;32679;40.810;14.498;2023-03-13T09:55:28;100696.66;;;23.51;31.22
46946;BME280;32679;40.810;14.498;2023-03-13T09:58:10;100693.50;;;23.09;31.46
46946;BME280;32679;40.810;14.498;2023-03-13T10:00:43;100693.88;;;22.44;32.03
46946;BME280;32679;40.810;14.498;2023-03-13T10:05:54;100690.38;;;22.60;31.55
46946;BME280;32679;40.810;14.498;2023-03-13T10:08:24;100689.84;;;21.95;32.54
46946;BME280;32679;40.810;14.498;2023-03-13T10:11:03;100679.69;;;22.21;31.73
46946;BME280;32679;40.810;14.498;2023-03-13T10:17:03;100671.59;;;23.10;30.48
46946;BME280;32679;40.810;14.498;2023-03-13T10:19:36;100672.53;;;23.59;30.06
46946;BME280;32679;40.810;14.498;2023-03-13T10:22:12;100674.16;;;23.60;30.67
46946;BME280;32679;40.810;14.498;2023-03-13T10:25:08;100681.00;;;23.43;31.15
46946;BME280;32679;40.810;14.498;2023-03-13T10:27:44;100676.22;;;22.80;31.72
46946;BME280;32679;40.810;14.498;2023-03-13T10:30:24;100668.19;;;23.55;31.01
46946;BME280;32679;40.810;14.498;2023-03-13T10:32:56;100664.44;;;23.58;30.91
46946;BME280;32679;40.810;14.498;2023-03-13T10:35:31;100657.69;;;23.88;30.14
46946;BME280;32679;40.810;14.498;2023-03-13T10:38:02;100646.59;;;23.41;31.77
46946;BME280;32679;40.810;14.498;2023-03-13T10:40:31;100657.97;;;24.42;29.70
46946;BME280;32679;40.810;14.498;2023-03-13T10:43:12;100654.00;;;24.69;29.85
46946;BME280;32679;40.810;14.498;2023-03-13T10:45:40;100657.28;;;25.25;29.34
46946;BME280;32679;40.810;14.498;2023-03-13T10:48:26;100651.94;;;25.40;29.29
46946;BME280;32679;40.810;14.498;2023-03-13T10:50:54;100648.69;;;25.80;28.61
46946;BME280;32679;40.810;14.498;2023-03-13T10:53:34;100653.28;;;25.23;29.02
46946;BME280;32679;40.810;14.498;2023-03-13T10:56:28;100649.09;;;25.53;28.38
46946;BME280;32679;40.810;14.498;2023-03-13T10:58:56;100648.59;;;24.87;28.86
46946;BME280;32679;40.810;14.498;2023-03-13T11:01:28;100636.22;;;24.94;28.83
46946;BME280;32679;40.810;14.498;2023-03-13T11:03:56;100636.28;;;23.99;30.15
46946;BME280;32679;40.810;14.498;2023-03-13T11:06:30;100635.34;;;23.53;31.05
46946;BME280;32679;40.810;14.498;2023-03-13T11:09:13;100634.69;;;24.15;30.22
46946;BME280;32679;40.810;14.498;2023-03-13T11:12:08;100645.69;;;23.64;30.73
46946;BME280;32679;40.810;14.498;2023-03-13T11:14:36;100637.63;;;23.78;30.76
46946;BME280;32679;40.810;14.498;2023-03-13T11:17:11;100632.19;;;23.84;30.96
46946;BME280;32679;40.810;14.498;2023-03-13T11:19:50;100629.44;;;23.64;30.83
46946;BME280;32679;40.810;14.498;2023-03-13T11:22:52;100628.00;;;23.00;31.47
46946;BME280;32679;40.810;14.498;2023-03-13T11:25:38;100625.97;;;22.81;32.01
46946;BME280;32679;40.810;14.498;2023-03-13T11:29:14;100620.63;;;22.19;32.82
46946;BME280;32679;40.810;14.498;2023-03-13T11:36:32;100622.59;;;22.86;31.33
46946;BME280;32679;40.810;14.498;2023-03-13T11:53:44;100614.88;;;23.26;32.59
46946;BME280;32679;40.810;14.498;2023-03-13T11:56:22;100606.25;;;23.13;33.33
46946;BME280;32679;40.810;14.498;2023-03-13T12:01:40;100611.16;;;23.29;30.86
46946;BME280;32679;40.810;14.498;2023-03-13T12:04:43;100607.75;;;22.78;32.05
46946;BME280;32679;40.810;14.498;2023-03-13T12:10:32;100591.19;;;22.77;32.20
46946;BME280;32679;40.810;14.498;2023-03-13T12:15:39;100588.50;;;23.62;31.98
46946;BME280;32679;40.810;14.498;2023-03-13T12:18:17;100580.84;;;22.66;33.63
46946;BME280;32679;40.810;14.498;2023-03-13T12:21:29;100581.22;;;22.88;33.53
46946;BME280;32679;40.810;14.498;2023-03-13T12:32:15;100565.66;;;21.66;35.10
46946;BME280;32679;40.810;14.498;2023-03-13T12:40:32;100548.66;;;21.66;35.98
46946;BME280;32679;40.810;14.498;2023-03-13T12:43:11;100559.94;;;21.93;35.31
46946;BME280;32679;40.810;14.498;2023-03-13T13:00:34;100527.72;;;22.07;35.89
46946;BME280;32679;40.810;14.498;2023-03-13T13:03:23;100528.69;;;22.20;35.85
46946;BME280;32679;40.810;14.498;2023-03-13T13:06:23;100529.09;;;22.22;35.50
46946;BME280;32679;40.810;14.498;2023-03-13T13:13:59;100526.19;;;21.56;37.17
46946;BME280;32679;40.810;14.498;2023-03-13T13:16:30;100523.50;;;21.22;37.52
46946;BME280;32679;40.810;14.498;2023-03-13T13:24:55;100525.78;;;21.30;37.94
46946;BME280;32679;40.810;14.498;2023-03-13T13:29:57;100533.44;;;21.03;38.34
46946;BME280;32679;40.810;14.498;2023-03-13T13:32:37;100533.28;;;20.56;39.19
46946;BME280;32679;40.810;14.498;2023-03-13T13:35:10;100491.59;;;20.63;39.28
46946;BME280;32679;40.810;14.498;2023-03-13T13:37:45;100540.72;;;21.04;38.92
46946;BME280;32679;40.810;14.498;2023-03-13T13:42:59;100534.47;;;20.89;38.90
46946;BME280;32679;40.810;14.498;2023-03-13T13:45:36;100543.16;;;21.02;39.13
46946;BME280;32679;40.810;14.498;2023-03-13T13:48:27;100535.34;;;20.82;39.80
46946;BME280;32679;40.810;14.498;2023-03-13T14:01:27;100536.97;;;20.53;40.46
46946;BME280;32679;40.810;14.498;2023-03-13T14:04:16;100533.59;;;20.27;40.95
46946;BME280;32679;40.810;14.498;2023-03-13T14:06:51;100526.44;;;20.19;41.26
46946;BME280;32679;40.810;14.498;2023-03-13T14:09:43;100523.06;;;20.31;40.54
46946;BME280;32679;40.810;14.498;2023-03-13T14:12:35;100519.16;;;20.18;40.61
46946;BME280;32679;40.810;14.498;2023-03-13T14:17:47;100530.38;;;20.25;41.04
46946;BME280;32679;40.810;14.498;2023-03-13T14:20:30;100531.84;;;20.03;41.22
46946;BME280;32679;40.810;14.498;2023-03-13T14:23:00;100528.41;;;20.22;41.17
46946;BME280;32679;40.810;14.498;2023-03-13T14:25:39;100516.97;;;19.99;41.64
46946;BME280;32679;40.810;14.498;2023-03-13T14:28:21;100521.75;;;20.02;41.65
46946;BME280;32679;40.810;14.498;2023-03-13T14:30:49;100517.22;;;19.70;41.92
46946;BME280;32679;40.810;14.498;2023-03-13T14:33:15;100503.00;;;19.81;41.79
46946;BME280;32679;40.810;14.498;2023-03-13T14:35:41;100496.00;;;19.51;41.95
46946;BME280;32679;40.810;14.498;2023-03-13T14:38:20;100502.50;;;19.93;41.40
46946;BME280;32679;40.810;14.498;2023-03-13T14:40:46;100502.66;;;19.75;41.79
46946;BME280;32679;40.810;14.498;2023-03-13T14:43:39;100503.34;;;19.86;41.23
46946;BME280;32679;40.810;14.498;2023-03-13T14:48:54;100493.47;;;20.05;41.78
46946;BME280;32679;40.810;14.498;2023-03-13T14:51:23;100486.41;;;19.86;42.41